createdAt,value
2023-02-12T00:01:32.780Z,5.82
2023-02-12T00:04:01.796Z,5.80
2023-02-12T00:06:30.788Z,5.85
2023-02-12T00:08:59.180Z,5.85
2023-02-12T00:11:29.855Z,5.87
2023-02-12T00:13:58.982Z,5.87
2023-02-12T00:16:30.127Z,5.86
2023-02-12T00:19:00.125Z,5.84
2023-02-12T00:21:30.160Z,5.81
2023-02-12T00:23:58.885Z,5.77
2023-02-12T00:26:27.662Z,5.79
2023-02-12T00:28:56.490Z,5.80
2023-02-12T00:31:26.846Z,5.76
2023-02-12T00:34:01.618Z,5.80
2023-02-12T00:36:32.067Z,5.81
2023-02-12T00:39:02.181Z,5.81
2023-02-12T00:41:31.640Z,5.80
2023-02-12T00:44:00.004Z,5.76
2023-02-12T00:46:28.917Z,5.68
2023-02-12T00:48:58.751Z,5.63
2023-02-12T00:51:27.573Z,5.58
2023-02-12T00:53:55.934Z,5.52
2023-02-12T00:56:25.734Z,5.50
2023-02-12T00:58:54.104Z,5.44
2023-02-12T01:01:22.909Z,5.53
2023-02-12T01:03:51.774Z,5.56
2023-02-12T01:06:22.706Z,5.57
2023-02-12T01:08:52.497Z,5.58
2023-02-12T01:11:22.061Z,5.54
2023-02-12T01:13:50.470Z,5.49
2023-02-12T01:16:21.722Z,5.45
2023-02-12T01:18:54.448Z,5.51
2023-02-12T01:21:29.125Z,5.53
2023-02-12T01:23:58.434Z,5.50
2023-02-12T01:26:29.160Z,5.50
2023-02-12T01:29:01.425Z,5.49
2023-02-12T01:31:32.824Z,5.48
2023-02-12T01:34:02.346Z,5.50
2023-02-12T01:36:32.356Z,5.48
2023-02-12T01:39:02.843Z,5.45
2023-02-12T01:41:33.443Z,5.39
2023-02-12T01:44:08.402Z,5.41
2023-02-12T01:46:37.627Z,5.31
2023-02-12T01:49:10.474Z,5.31
2023-02-12T01:51:42.415Z,5.31
2023-02-12T01:54:14.336Z,5.32
2023-02-12T01:56:44.061Z,5.32
2023-02-12T01:59:13.687Z,5.35
2023-02-12T02:01:42.323Z,5.33
2023-02-12T02:04:14.936Z,5.31
2023-02-12T02:06:52.375Z,5.34
2023-02-12T02:09:21.109Z,5.35
2023-02-12T02:12:07.739Z,5.34
2023-02-12T02:14:36.962Z,5.36
2023-02-12T02:17:25.519Z,5.37
2023-02-12T02:20:22.880Z,5.36
2023-02-12T02:23:09.510Z,5.33
2023-02-12T02:26:12.552Z,5.31
2023-02-12T02:29:05.692Z,5.31
2023-02-12T02:31:42.147Z,5.30
2023-02-12T02:34:16.371Z,5.30
2023-02-12T02:37:00.210Z,5.31
2023-02-12T02:39:39.209Z,5.32
2023-02-12T02:42:13.938Z,5.29
2023-02-12T02:44:47.777Z,5.30
2023-02-12T02:47:21.163Z,5.34
2023-02-12T02:49:56.226Z,5.34
2023-02-12T02:52:31.499Z,5.34
2023-02-12T02:55:06.838Z,5.31
2023-02-12T02:57:40.551Z,5.35
2023-02-12T03:00:15.792Z,5.33
2023-02-12T03:02:52.035Z,5.28
2023-02-12T03:05:26.014Z,5.32
2023-02-12T03:08:00.865Z,5.31
2023-02-12T03:10:34.951Z,5.28
2023-02-12T03:13:08.387Z,5.30
2023-02-12T03:15:40.566Z,5.32
2023-02-12T03:18:14.700Z,5.31
2023-02-12T03:20:48.845Z,5.25
2023-02-12T03:23:24.037Z,5.32
2023-02-12T03:25:59.141Z,5.32
2023-02-12T03:28:30.994Z,5.23
2023-02-12T03:31:08.949Z,5.35
2023-02-12T03:33:46.322Z,5.37
2023-02-12T03:36:23.953Z,5.36
2023-02-12T03:38:56.815Z,5.34
2023-02-12T03:41:32.534Z,5.34
2023-02-12T03:44:07.868Z,5.32
2023-02-12T03:46:44.115Z,5.29
2023-02-12T03:49:22.432Z,5.27
2023-02-12T03:51:51.590Z,5.25
2023-02-12T03:54:22.786Z,5.24
2023-02-12T03:56:55.822Z,5.22
2023-02-12T03:59:26.432Z,5.25
2023-02-12T04:01:57.206Z,5.22
2023-02-12T04:04:28.109Z,5.12
2023-02-12T04:06:58.011Z,5.02
2023-02-12T04:09:28.813Z,5.16
2023-02-12T04:12:11.145Z,5.16
2023-02-12T04:14:51.159Z,5.16
2023-02-12T04:17:28.230Z,5.15
2023-02-12T04:20:09.817Z,5.07
2023-02-12T04:22:48.175Z,5.08
2023-02-12T04:25:26.747Z,5.08
2023-02-12T04:28:02.704Z,5.05
2023-02-12T04:30:52.442Z,5.02
2023-02-12T04:33:40.564Z,4.99
2023-02-12T04:36:25.470Z,5.04
2023-02-12T04:39:41.126Z,5.05
2023-02-12T04:42:13.632Z,5.05
2023-02-12T04:50:42.585Z,5.04
2023-02-12T04:59:12.951Z,4.98
2023-02-12T05:19:10.171Z,4.96
2023-02-12T05:22:18.873Z,4.97
2023-02-12T05:33:09.602Z,5.00
2023-02-12T05:36:49.287Z,5.01
2023-02-12T05:43:01.571Z,4.97
2023-02-12T06:34:50.315Z,4.90
2023-02-12T06:54:46.630Z,4.93
2023-02-12T06:57:15.622Z,4.90
2023-02-12T06:59:44.446Z,4.94
2023-02-12T07:02:13.215Z,5.00
2023-02-12T07:04:41.678Z,4.95
2023-02-12T07:07:10.439Z,5.04
2023-02-12T07:09:40.160Z,5.06
2023-02-12T07:12:09.064Z,5.07
2023-02-12T07:14:37.601Z,5.10
2023-02-12T07:17:08.902Z,5.13
2023-02-12T07:19:38.031Z,5.17
2023-02-12T07:22:06.942Z,5.20
2023-02-12T07:24:35.271Z,5.21
2023-02-12T07:27:06.126Z,5.25
2023-02-12T07:29:34.680Z,5.31
2023-02-12T07:32:03.441Z,5.33
2023-02-12T07:34:32.164Z,5.37
2023-02-12T07:37:01.414Z,5.37
2023-02-12T07:39:29.705Z,5.44
2023-02-12T07:41:58.606Z,5.43
2023-02-12T07:44:28.340Z,5.47
2023-02-12T07:46:57.094Z,5.50
2023-02-12T07:49:25.643Z,5.52
2023-02-12T07:51:57.188Z,5.52
2023-02-12T07:54:26.023Z,5.51
2023-02-12T07:56:55.169Z,5.51
2023-02-12T07:59:24.204Z,5.51
2023-02-12T08:01:54.854Z,5.53
2023-02-12T08:04:25.956Z,5.46
2023-02-12T08:06:56.358Z,5.61
2023-02-12T08:09:28.083Z,5.63
2023-02-12T08:11:56.393Z,5.62
2023-02-12T08:14:25.232Z,5.65
2023-02-12T08:16:55.019Z,5.67
2023-02-12T08:19:26.365Z,5.71
2023-02-12T08:21:56.607Z,5.75
2023-02-12T08:24:26.524Z,5.77
2023-02-12T08:26:55.146Z,5.79
2023-02-12T08:29:26.230Z,5.82
2023-02-12T08:31:59.485Z,5.85
2023-02-12T08:34:29.887Z,5.86
2023-02-12T08:36:59.192Z,5.88
2023-02-12T08:39:30.167Z,5.91
2023-02-12T08:42:00.292Z,5.95
2023-02-12T08:44:28.980Z,5.97
2023-02-12T08:46:59.155Z,6.01
2023-02-12T08:49:29.387Z,6.05
2023-02-12T08:52:02.126Z,6.11
2023-02-12T08:54:31.625Z,6.15
2023-02-12T08:57:02.088Z,6.16
2023-02-12T08:59:31.418Z,6.18
2023-02-12T09:02:01.917Z,6.19
2023-02-12T09:04:31.338Z,6.12
2023-02-12T09:06:59.690Z,6.22
2023-02-12T09:09:28.391Z,6.16
2023-02-12T09:11:57.275Z,6.24
2023-02-12T09:14:25.918Z,6.26
2023-02-12T09:16:54.642Z,6.27
2023-02-12T09:19:25.083Z,6.20
2023-02-12T09:21:55.991Z,6.16
2023-02-12T09:24:25.040Z,6.23
2023-02-12T09:26:53.843Z,6.28
2023-02-12T09:29:22.150Z,6.28
2023-02-12T09:31:50.575Z,6.38
2023-02-12T09:34:19.746Z,6.42
2023-02-12T09:36:49.511Z,6.42
2023-02-12T09:39:18.084Z,6.45
2023-02-12T09:42:28.087Z,6.51
2023-02-12T09:45:04.541Z,6.54
2023-02-12T09:47:40.770Z,6.57
2023-02-12T09:50:28.042Z,6.58
2023-02-12T09:52:59.243Z,6.64
2023-02-12T09:55:31.359Z,6.67
2023-02-12T09:58:02.258Z,6.67
2023-02-12T10:00:32.407Z,6.70
2023-02-12T10:03:05.938Z,6.70
2023-02-12T10:05:42.095Z,6.67
2023-02-12T10:08:25.610Z,6.75
2023-02-12T10:11:00.416Z,6.78
2023-02-12T10:13:40.213Z,6.83
2023-02-12T10:16:16.069Z,6.82
2023-02-12T10:19:00.579Z,6.88
2023-02-12T10:21:43.627Z,6.89
2023-02-12T10:24:36.925Z,6.90
2023-02-12T10:27:12.657Z,6.91
2023-02-12T10:29:43.776Z,6.91
2023-02-12T10:32:21.703Z,6.94
2023-02-12T10:34:52.876Z,6.98
2023-02-12T10:37:29.842Z,7.01
2023-02-12T10:40:04.796Z,7.08
2023-02-12T10:42:40.194Z,7.07
2023-02-12T10:45:15.374Z,7.09
2023-02-12T10:47:45.564Z,7.16
2023-02-12T10:50:24.068Z,7.19
2023-02-12T10:52:57.461Z,7.18
2023-02-12T10:55:30.366Z,7.28
2023-02-12T10:58:01.153Z,7.28
2023-02-12T11:00:32.729Z,7.31
2023-02-12T11:03:22.023Z,7.37
2023-02-12T11:05:51.209Z,7.37
2023-02-12T11:08:31.993Z,7.39
2023-02-12T11:11:10.279Z,7.39
2023-02-12T11:13:40.946Z,7.40
2023-02-12T11:16:10.794Z,7.40
2023-02-12T11:18:39.796Z,7.39
2023-02-12T11:21:11.490Z,7.39
2023-02-12T11:23:41.388Z,7.41
2023-02-12T11:26:26.838Z,7.44
2023-02-12T11:28:57.225Z,7.34
2023-02-12T11:31:28.493Z,7.41
2023-02-12T11:34:15.578Z,7.43
2023-02-12T11:36:47.480Z,7.50
2023-02-12T11:39:22.874Z,7.54
2023-02-12T11:41:56.499Z,7.51
2023-02-12T11:44:28.613Z,7.54
2023-02-12T11:47:02.171Z,7.61
2023-02-12T11:49:34.668Z,7.63
2023-02-12T11:52:05.208Z,7.66
2023-02-12T11:54:40.212Z,7.73
2023-02-12T11:57:34.739Z,7.72
2023-02-12T12:00:12.878Z,7.76
2023-02-12T12:02:59.143Z,7.82
2023-02-12T12:05:33.086Z,7.86
2023-02-12T12:08:09.516Z,7.86
2023-02-12T12:10:43.603Z,7.94
2023-02-12T12:13:18.779Z,7.94
2023-02-12T12:16:09.369Z,7.99
2023-02-12T12:19:04.509Z,8.01
2023-02-12T12:21:40.785Z,8.06
2023-02-12T12:24:15.454Z,8.14
2023-02-12T12:26:50.641Z,8.12
2023-02-12T12:29:24.207Z,8.10
2023-02-12T12:32:00.491Z,8.07
2023-02-12T12:34:29.929Z,8.06
2023-02-12T12:37:16.524Z,8.05
2023-02-12T12:39:59.843Z,8.03
2023-02-12T12:43:04.735Z,8.07
2023-02-12T12:46:00.465Z,8.17
2023-02-12T12:48:46.589Z,8.39
2023-02-12T12:51:30.636Z,8.57
2023-02-12T12:54:12.107Z,8.57
2023-02-12T12:56:50.318Z,8.60
2023-02-12T13:00:02.401Z,8.63
2023-02-12T13:03:02.405Z,8.77
2023-02-12T13:06:00.117Z,9.00
2023-02-12T13:08:40.949Z,9.20
2023-02-12T13:11:24.497Z,9.35
2023-02-12T13:14:02.938Z,9.44
2023-02-12T13:16:36.943Z,9.50
2023-02-12T13:19:14.262Z,9.51
2023-02-12T13:21:52.897Z,9.51
2023-02-12T13:24:28.917Z,9.24
2023-02-12T13:27:01.774Z,9.21
2023-02-12T13:29:36.104Z,9.10
2023-02-12T13:32:10.055Z,9.16
2023-02-12T13:34:40.755Z,9.18
2023-02-12T13:37:18.714Z,9.10
2023-02-12T13:39:50.341Z,9.04
2023-02-12T13:42:40.910Z,9.01
2023-02-12T13:45:22.978Z,8.97
2023-02-12T13:48:02.630Z,8.90
2023-02-12T13:50:42.578Z,8.97
2023-02-12T13:53:23.409Z,8.98
2023-02-12T13:56:08.020Z,8.90
2023-02-12T13:58:52.042Z,8.87
2023-02-12T14:01:39.985Z,8.88
2023-02-12T14:04:29.914Z,8.89
2023-02-12T14:07:02.075Z,8.88
2023-02-12T14:09:37.752Z,8.82
2023-02-12T14:12:10.515Z,8.69
2023-02-12T14:14:45.572Z,8.53
2023-02-12T14:17:43.769Z,8.52
2023-02-12T14:20:24.267Z,8.53
2023-02-12T14:23:26.657Z,8.59
2023-02-12T14:26:06.101Z,8.67
2023-02-12T14:28:48.809Z,8.60
2023-02-12T14:31:38.811Z,8.61
2023-02-12T14:34:49.240Z,8.65
2023-02-12T14:37:38.527Z,8.70
2023-02-12T14:40:45.689Z,8.70
2023-02-12T14:44:00.290Z,8.72
2023-02-12T14:46:46.245Z,8.68
2023-02-12T14:49:26.737Z,8.77
2023-02-12T14:51:59.502Z,8.84
2023-02-12T14:54:34.068Z,8.93
2023-02-12T14:57:07.889Z,9.05
2023-02-12T14:59:42.529Z,9.03
2023-02-12T15:02:18.519Z,8.99
2023-02-12T15:04:47.082Z,8.88
2023-02-12T15:07:24.013Z,9.16
2023-02-12T15:09:57.289Z,9.21
2023-02-12T15:12:32.726Z,9.47
2023-02-12T15:15:14.586Z,9.74
2023-02-12T15:17:54.589Z,9.97
2023-02-12T15:20:26.202Z,10.09
2023-02-12T15:22:56.241Z,10.07
2023-02-12T15:25:27.287Z,10.01
2023-02-12T15:27:59.482Z,10.14
2023-02-12T15:30:31.502Z,10.17
2023-02-12T15:33:05.855Z,10.18
2023-02-12T15:35:37.215Z,10.17
2023-02-12T15:38:08.222Z,10.03
2023-02-12T15:40:36.554Z,9.83
2023-02-12T15:43:08.739Z,9.73
2023-02-12T15:45:39.814Z,9.72
2023-02-12T15:48:14.520Z,9.78
2023-02-12T15:50:55.026Z,9.75
2023-02-12T15:53:27.381Z,9.64
2023-02-12T15:55:56.469Z,9.59
2023-02-12T15:58:28.022Z,9.59
2023-02-12T16:01:02.890Z,9.46
2023-02-12T16:03:33.854Z,9.33
2023-02-12T16:06:11.387Z,9.17
2023-02-12T16:08:40.647Z,8.97
2023-02-12T16:11:14.772Z,8.91
2023-02-12T16:13:47.219Z,8.87
2023-02-12T16:16:24.560Z,8.72
2023-02-12T16:19:08.343Z,8.59
2023-02-12T16:21:39.292Z,8.39
2023-02-12T16:24:26.890Z,8.36
2023-02-12T16:26:56.205Z,8.39
2023-02-12T16:29:26.018Z,8.38
2023-02-12T16:31:59.644Z,8.34
2023-02-12T16:34:31.976Z,8.26
2023-02-12T16:37:00.346Z,8.19
2023-02-12T16:40:10.113Z,8.12
2023-02-12T16:42:38.715Z,8.00
2023-02-12T16:45:36.226Z,7.97
2023-02-12T16:48:14.464Z,7.93
2023-02-12T16:50:49.101Z,7.88
2023-02-12T16:53:43.509Z,7.83
2023-02-12T16:56:18.538Z,7.76
2023-02-12T16:58:48.560Z,7.68
2023-02-12T17:01:19.661Z,7.61
2023-02-12T17:03:51.471Z,7.57
2023-02-12T17:06:21.693Z,7.52
2023-02-12T17:08:50.453Z,7.49
2023-02-12T17:11:19.276Z,7.42
2023-02-12T17:13:49.972Z,7.39
2023-02-12T17:16:29.798Z,7.21
2023-02-12T17:19:01.282Z,7.14
2023-02-12T17:21:32.162Z,7.06
2023-02-12T17:24:00.642Z,7.01
2023-02-12T17:26:29.236Z,6.84
2023-02-12T17:29:05.164Z,6.76
2023-02-12T17:31:34.753Z,6.68
2023-02-12T17:34:05.806Z,6.62
2023-02-12T17:36:34.856Z,6.56
2023-02-12T17:39:06.337Z,6.60
2023-02-12T17:41:35.663Z,6.56
2023-02-12T17:44:04.854Z,6.48
2023-02-12T17:46:34.215Z,6.40
2023-02-12T17:49:05.785Z,6.33
2023-02-12T17:51:44.670Z,6.27
2023-02-12T17:54:14.386Z,6.15
2023-02-12T17:56:43.197Z,6.08
2023-02-12T17:59:11.619Z,6.04
2023-02-12T18:01:41.399Z,5.99
2023-02-12T18:04:11.170Z,5.95
2023-02-12T18:06:39.554Z,5.91
2023-02-12T18:09:07.859Z,5.94
2023-02-12T18:11:38.365Z,5.97
2023-02-12T18:14:06.958Z,5.97
2023-02-12T18:16:36.512Z,5.95
2023-02-12T18:19:05.962Z,5.88
2023-02-12T18:21:35.844Z,5.78
2023-02-12T18:24:05.370Z,5.69
2023-02-12T18:26:33.922Z,5.63
2023-02-12T18:29:03.197Z,5.59
2023-02-12T18:31:32.155Z,5.55
2023-02-12T18:34:01.077Z,5.45
2023-02-12T18:36:29.529Z,5.42
2023-02-12T18:39:01.402Z,5.38
2023-02-12T18:41:33.462Z,5.33
2023-02-12T18:44:01.789Z,5.35
2023-02-12T18:46:33.372Z,5.36
2023-02-12T18:49:03.725Z,5.27
2023-02-12T18:51:36.599Z,5.15
2023-02-12T18:54:12.577Z,5.12
2023-02-12T18:56:44.013Z,5.08
2023-02-12T18:59:16.104Z,5.05
2023-02-12T19:01:46.381Z,4.99
2023-02-12T19:04:17.125Z,4.95
2023-02-12T19:06:47.804Z,4.95
2023-02-12T19:09:20.666Z,4.97
2023-02-12T19:11:50.498Z,4.94
2023-02-12T19:14:21.450Z,4.87
2023-02-12T19:16:50.222Z,4.75
2023-02-12T19:19:21.044Z,4.63
2023-02-12T19:21:49.642Z,4.60
2023-02-12T19:24:19.988Z,4.66
2023-02-12T19:26:52.229Z,4.60
2023-02-12T19:29:20.547Z,4.56
2023-02-12T19:31:49.696Z,4.46
2023-02-12T19:34:20.658Z,4.43
2023-02-12T19:36:50.860Z,4.40
2023-02-12T19:39:22.718Z,4.45
2023-02-12T19:41:52.045Z,4.41
2023-02-12T19:44:23.244Z,4.37
2023-02-12T19:46:52.025Z,4.33
2023-02-12T19:49:23.151Z,4.32
2023-02-12T19:51:51.826Z,4.31
2023-02-12T19:54:24.502Z,4.26
2023-02-12T19:56:53.314Z,4.23
2023-02-12T19:59:24.203Z,4.26
2023-02-12T20:01:52.801Z,4.24
2023-02-12T20:04:24.134Z,4.29
2023-02-12T20:06:53.283Z,4.27
2023-02-12T20:09:23.744Z,4.25
2023-02-12T20:11:53.945Z,4.21
2023-02-12T20:14:22.806Z,4.22
2023-02-12T20:16:52.710Z,4.22
2023-02-12T20:19:25.836Z,4.19
2023-02-12T20:21:57.157Z,4.18
2023-02-12T20:24:28.741Z,4.20
2023-02-12T20:26:59.588Z,4.20
2023-02-12T20:29:28.790Z,4.17
2023-02-12T20:31:58.213Z,4.18
2023-02-12T20:34:27.225Z,4.16
2023-02-12T20:36:55.878Z,4.18
2023-02-12T20:39:28.209Z,4.11
2023-02-12T20:41:56.958Z,4.02
2023-02-12T20:44:25.631Z,3.98
2023-02-12T20:46:57.202Z,3.98
2023-02-12T20:49:26.199Z,3.99
2023-02-12T20:51:56.532Z,3.97
2023-02-12T20:54:25.867Z,3.90
2023-02-12T20:56:56.080Z,4.00
2023-02-12T20:59:24.430Z,4.06
2023-02-12T21:01:53.278Z,4.07
2023-02-12T21:04:21.680Z,4.07
2023-02-12T21:06:52.195Z,4.04
2023-02-12T21:09:20.535Z,4.07
2023-02-12T21:11:50.780Z,4.11
2023-02-12T21:14:23.514Z,4.11
2023-02-12T21:16:54.816Z,4.07
2023-02-12T21:19:24.325Z,4.03
2023-02-12T21:21:53.911Z,3.95
2023-02-12T21:24:25.052Z,3.90
2023-02-12T21:26:55.338Z,3.82
2023-02-12T21:29:26.678Z,3.92
2023-02-12T21:31:55.640Z,3.98
2023-02-12T21:34:24.600Z,3.99
2023-02-12T21:36:55.773Z,3.97
2023-02-12T21:39:27.513Z,3.96
2023-02-12T21:42:01.209Z,3.98
2023-02-12T21:44:32.380Z,3.96
2023-02-12T21:47:00.790Z,3.94
2023-02-12T21:49:29.510Z,3.91
2023-02-12T21:52:02.545Z,3.83
2023-02-12T21:54:31.683Z,3.69
2023-02-12T21:57:00.956Z,3.67
2023-02-12T21:59:32.452Z,3.59
2023-02-12T22:02:01.917Z,3.59
2023-02-12T22:04:30.715Z,3.63
2023-02-12T22:07:03.012Z,3.62
2023-02-12T22:09:31.715Z,3.62
2023-02-12T22:12:00.696Z,3.63
2023-02-12T22:14:29.627Z,3.64
2023-02-12T22:16:59.989Z,3.59
2023-02-12T22:19:28.365Z,3.52
2023-02-12T22:21:57.655Z,3.50
2023-02-12T22:24:26.001Z,3.25
2023-02-12T22:26:56.322Z,3.20
2023-02-12T22:29:24.766Z,3.13
2023-02-12T22:31:53.888Z,3.17
2023-02-12T22:34:23.598Z,3.23
2023-02-12T22:36:52.782Z,3.15
2023-02-12T22:39:22.290Z,3.24
2023-02-12T22:41:51.448Z,3.29
2023-02-12T22:44:21.296Z,3.31
2023-02-12T22:46:50.119Z,3.28
2023-02-12T22:49:19.254Z,3.20
2023-02-12T22:51:48.981Z,3.22
2023-02-12T22:54:19.075Z,3.27
2023-02-12T22:56:51.469Z,3.34
2023-02-12T22:59:20.780Z,3.34
2023-02-12T23:01:49.606Z,3.29
2023-02-12T23:04:19.277Z,3.27
2023-02-12T23:06:49.845Z,3.34
2023-02-12T23:09:20.185Z,3.36
2023-02-12T23:11:49.585Z,3.39
2023-02-12T23:14:19.498Z,3.24
2023-02-12T23:16:48.283Z,3.21
2023-02-12T23:19:16.764Z,3.27
2023-02-12T23:21:45.265Z,3.20
2023-02-12T23:24:16.089Z,3.10
2023-02-12T23:26:44.945Z,2.95
2023-02-12T23:29:13.595Z,2.90
2023-02-12T23:31:43.019Z,2.97
2023-02-12T23:34:12.341Z,2.92
2023-02-12T23:36:43.749Z,2.92
2023-02-12T23:39:16.340Z,2.93
2023-02-12T23:41:44.773Z,3.04
2023-02-12T23:44:14.092Z,3.04
2023-02-12T23:46:43.187Z,3.09
2023-02-12T23:49:11.581Z,3.05
2023-02-12T23:51:39.884Z,3.10
2023-02-12T23:54:08.281Z,3.14
2023-02-12T23:56:38.889Z,3.10
2023-02-12T23:59:07.232Z,3.11
